Time;durP1;ratioP1;P1;durP2;ratioP2;P2;SDS_P1;SDS_P2;PMS_P1;PMS_P2;Temp;Humidity;BMP_temperature;BMP_pressure;BME280_temperature;BME280_humidity;BME280_pressure;Samples;Min_cycle;Max_cycle;Signal;HPM_P1;HPM_P2
2021/04/07 00:02:16;;;;;;;6.25;1.70;;;20.80;99.90;;;;;;5031169;28;20380;-83
2021/04/07 00:04:59;;;;;;;5.07;1.27;;;20.80;99.90;;;;;;5031265;28;20397;-83
2021/04/07 00:07:26;;;;;;;5.43;0.90;;;21.00;99.90;;;;;;5049497;28;20800;-82
2021/04/07 00:09:53;;;;;;;3.72;0.82;;;21.20;99.90;;;;;;5050820;28;20370;-83
2021/04/07 00:12:20;;;;;;;3.55;0.70;;;21.10;99.90;;;;;;5051028;28;20763;-83
2021/04/07 00:14:47;;;;;;;6.22;1.10;;;20.80;99.90;;;;;;5050872;28;22646;-82
2021/04/07 00:17:14;;;;;;;2.38;0.88;;;20.60;99.90;;;;;;5050766;28;20382;-82
2021/04/07 00:19:41;;;;;;;5.47;1.00;;;20.40;99.90;;;;;;5051018;28;20368;-81
2021/04/07 00:22:08;;;;;;;3.03;0.90;;;20.30;99.90;;;;;;5046380;28;20383;-81
2021/04/07 00:24:35;;;;;;;3.78;1.02;;;20.40;99.90;;;;;;5031481;28;20405;-80
2021/04/07 00:27:09;;;;;;;6.28;1.20;;;20.30;99.90;;;;;;5032361;28;20793;-81
2021/04/07 00:29:36;;;;;;;5.93;1.10;;;20.40;99.90;;;;;;5047201;28;20386;-81
2021/04/07 00:32:03;;;;;;;4.65;1.40;;;20.30;99.90;;;;;;5049947;28;20380;-81
2021/04/07 00:34:32;;;;;;;5.00;1.15;;;20.30;99.90;;;;;;5050591;28;20379;-82
2021/04/07 00:36:59;;;;;;;5.45;1.23;;;20.20;99.90;;;;;;5042936;28;20373;-81
2021/04/07 00:39:26;;;;;;;4.60;1.10;;;20.20;99.90;;;;;;5037834;28;20843;-83
2021/04/07 00:41:53;;;;;;;4.75;1.38;;;20.20;99.90;;;;;;5050755;28;20466;-82
2021/04/07 00:44:20;;;;;;;5.80;1.20;;;20.30;99.90;;;;;;5050554;28;20426;-82
2021/04/07 00:49:21;;;;;;;5.90;1.00;;;20.40;99.90;;;;;;5106785;27;20364;-81
2021/04/07 00:51:48;;;;;;;5.65;0.90;;;20.60;99.90;;;;;;5103627;28;20395;-81
2021/04/07 00:54:15;;;;;;;4.90;1.10;;;20.60;99.90;;;;;;5106455;28;20367;-81
2021/04/07 00:56:44;;;;;;;3.30;1.05;;;20.60;99.90;;;;;;5106268;28;20372;-81
2021/04/07 00:59:16;;;;;;;4.13;0.85;;;20.60;99.90;;;;;;5105137;28;20735;-81
2021/04/07 01:01:43;;;;;;;5.22;1.02;;;20.50;99.90;;;;;;5103454;28;20395;-82
2021/04/07 01:04:11;;;;;;;5.30;0.90;;;20.50;99.90;;;;;;5105845;27;20921;-81
2021/04/07 01:06:41;;;;;;;4.60;1.05;;;20.50;99.90;;;;;;5103591;28;20372;-81
2021/04/07 01:09:09;;;;;;;3.13;0.90;;;20.50;99.90;;;;;;5105962;28;20395;-81
2021/04/07 01:11:36;;;;;;;4.72;1.13;;;20.40;99.90;;;;;;5105500;28;20437;-80
2021/04/07 01:14:04;;;;;;;15.23;5.05;;;20.40;99.90;;;;;;5106816;28;20785;-81
2021/04/07 01:16:31;;;;;;;42.58;10.98;;;20.40;99.90;;;;;;5105827;28;20737;-81
2021/04/07 01:18:59;;;;;;;29.75;8.90;;;20.30;99.90;;;;;;5106915;28;20711;-81
2021/04/07 01:21:26;;;;;;;64.75;27.02;;;20.30;99.90;;;;;;5106034;28;20708;-81
2021/04/07 01:23:53;;;;;;;21.15;8.85;;;20.40;99.90;;;;;;5104766;28;20379;-80
2021/04/07 01:26:20;;;;;;;13.18;5.22;;;20.50;99.90;;;;;;5103987;28;20747;-80
2021/04/07 01:28:47;;;;;;;4.53;0.90;;;20.40;99.90;;;;;;5103586;28;20972;-81
2021/04/07 01:31:14;;;;;;;4.70;0.88;;;20.40;99.90;;;;;;5105567;28;20410;-80
2021/04/07 01:33:42;;;;;;;6.65;1.20;;;20.50;99.90;;;;;;5104416;28;20387;-80
2021/04/07 01:36:09;;;;;;;11.35;2.75;;;20.60;99.90;;;;;;5119616;28;20374;-80
2021/04/07 01:38:36;;;;;;;9.63;1.13;;;20.60;99.90;;;;;;5111549;28;20474;-80
2021/04/07 01:41:05;;;;;;;7.78;1.10;;;20.70;99.90;;;;;;5105752;28;20367;-80
2021/04/07 01:43:34;;;;;;;3.58;0.75;;;20.70;99.90;;;;;;5090970;28;20401;-81
2021/04/07 01:46:02;;;;;;;5.10;1.00;;;20.70;99.90;;;;;;5100646;28;20363;-79
2021/04/07 01:48:31;;;;;;;12.68;3.30;;;20.70;99.90;;;;;;5105265;28;20461;-80
2021/04/07 01:50:58;;;;;;;16.67;4.75;;;20.80;99.90;;;;;;5103738;28;20743;-80
2021/04/07 01:53:26;;;;;;;6.43;1.90;;;20.80;99.90;;;;;;5105560;28;20419;-80
2021/04/07 01:55:53;;;;;;;4.70;1.30;;;20.80;99.90;;;;;;5103201;28;20445;-80
2021/04/07 01:58:21;;;;;;;5.53;0.95;;;20.80;99.90;;;;;;5105339;28;20424;-80
2021/04/07 02:00:48;;;;;;;4.45;0.82;;;20.80;99.90;;;;;;5090685;28;20384;-80
2021/04/07 02:03:15;;;;;;;7.13;1.13;;;20.70;99.90;;;;;;5095005;28;20460;-80
2021/04/07 02:05:42;;;;;;;5.20;1.20;;;20.80;99.90;;;;;;5091571;28;20368;-80
2021/04/07 02:08:09;;;;;;;6.40;0.93;;;20.80;99.90;;;;;;5091534;28;20422;-81
2021/04/07 02:10:36;;;;;;;5.05;0.65;;;20.80;99.90;;;;;;5091613;28;20364;-80
2021/04/07 02:13:05;;;;;;;6.07;1.05;;;20.80;99.90;;;;;;5091900;28;20368;-82
2021/04/07 02:15:32;;;;;;;6.75;1.13;;;20.80;99.90;;;;;;5091415;28;20457;-81
2021/04/07 02:17:59;;;;;;;4.47;0.80;;;20.90;99.90;;;;;;5089986;28;20423;-80
2021/04/07 02:20:26;;;;;;;4.53;0.70;;;21.10;99.90;;;;;;5091514;28;20367;-81
2021/04/07 02:22:53;;;;;;;4.85;1.00;;;21.10;99.90;;;;;;5091458;28;20761;-80
2021/04/07 02:25:20;;;;;;;4.30;0.60;;;21.20;99.90;;;;;;5089668;28;20360;-80
2021/04/07 02:27:47;;;;;;;3.05;0.82;;;21.20;99.90;;;;;;5091405;28;20422;-80
2021/04/07 02:30:16;;;;;;;3.92;0.80;;;21.30;99.90;;;;;;5091285;28;20383;-80
2021/04/07 02:32:44;;;;;;;4.00;0.70;;;21.30;99.90;;;;;;5108110;28;20375;-80
2021/04/07 02:35:11;;;;;;;4.88;0.93;;;21.30;99.90;;;;;;5109949;28;20420;-81
2021/04/07 02:37:38;;;;;;;4.30;0.80;;;21.50;99.90;;;;;;5111278;28;20367;-81
2021/04/07 02:40:06;;;;;;;5.18;0.77;;;21.50;99.90;;;;;;5109966;28;20443;-80
2021/04/07 02:42:33;;;;;;;4.35;0.80;;;21.60;99.90;;;;;;5111849;28;20363;-80
2021/04/07 02:45:00;;;;;;;3.75;0.90;;;21.60;99.90;;;;;;5109896;28;20872;-80
2021/04/07 02:47:27;;;;;;;3.65;0.82;;;21.50;99.90;;;;;;5109637;28;20459;-79
2021/04/07 02:49:54;;;;;;;3.95;0.50;;;21.50;99.90;;;;;;5111226;28;20375;-80
2021/04/07 02:52:21;;;;;;;3.45;0.70;;;21.40;99.90;;;;;;5109655;28;20397;-80
2021/04/07 02:54:48;;;;;;;2.88;0.70;;;21.40;99.90;;;;;;5109778;28;20846;-80
2021/04/07 02:57:15;;;;;;;6.47;0.85;;;21.40;99.90;;;;;;5095665;28;20363;-81
2021/04/07 02:59:42;;;;;;;3.47;0.73;;;21.40;99.90;;;;;;5090127;28;20445;-80
2021/04/07 03:02:09;;;;;;;3.72;0.70;;;21.50;99.90;;;;;;5089091;28;20418;-80
2021/04/07 03:04:36;;;;;;;3.20;0.70;;;21.40;99.90;;;;;;5089314;28;20504;-80
2021/04/07 03:07:03;;;;;;;2.85;0.57;;;21.50;99.90;;;;;;5088794;28;20388;-80
2021/04/07 03:09:30;;;;;;;5.18;0.70;;;21.70;99.90;;;;;;5088935;28;20442;-80
2021/04/07 03:11:57;;;;;;;3.40;0.80;;;21.90;99.90;;;;;;5090018;28;20368;-80
2021/04/07 03:14:24;;;;;;;3.63;0.88;;;22.10;99.90;;;;;;5090589;28;20372;-79
2021/04/07 03:16:51;;;;;;;2.53;0.40;;;22.30;99.90;;;;;;5090116;28;20399;-80
2021/04/07 03:19:18;;;;;;;4.10;0.80;;;22.50;99.90;;;;;;5090405;28;20449;-79
2021/04/07 03:21:45;;;;;;;2.00;0.52;;;22.60;99.90;;;;;;5090270;28;20487;-80
2021/04/07 03:24:12;;;;;;;2.67;0.63;;;22.70;99.90;;;;;;5090335;28;20383;-80
2021/04/07 03:26:39;;;;;;;2.97;0.50;;;22.70;99.90;;;;;;5100555;28;20469;-80
2021/04/07 03:29:06;;;;;;;5.50;0.70;;;22.70;99.90;;;;;;5110509;28;20449;-80
2021/04/07 03:31:33;;;;;;;3.72;0.80;;;22.50;99.90;;;;;;5098816;28;20389;-80
2021/04/07 03:34:00;;;;;;;5.63;0.70;;;22.40;99.90;;;;;;5089899;28;20392;-80
2021/04/07 03:36:27;;;;;;;2.33;0.30;;;22.10;99.90;;;;;;5089897;28;20740;-80
2021/04/07 03:38:54;;;;;;;3.03;0.60;;;21.90;99.90;;;;;;5089236;28;20792;-80
2021/04/07 03:41:21;;;;;;;4.40;0.63;;;21.80;99.90;;;;;;5090142;28;20740;-80
2021/04/07 03:43:48;;;;;;;2.67;0.60;;;21.80;99.90;;;;;;5090019;28;20447;-80
2021/04/07 03:46:17;;;;;;;4.00;0.57;;;21.70;99.90;;;;;;5089405;28;20376;-79
2021/04/07 03:48:44;;;;;;;2.97;0.52;;;21.60;99.90;;;;;;5088070;28;20465;-80
2021/04/07 03:51:11;;;;;;;4.03;0.45;;;21.60;99.90;;;;;;5089785;28;20425;-80
2021/04/07 03:53:39;;;;;;;2.75;0.60;;;21.60;99.90;;;;;;5070543;28;20718;-80
2021/04/07 03:56:06;;;;;;;2.65;0.50;;;21.60;99.90;;;;;;5068891;28;20416;-80
2021/04/07 03:58:34;;;;;;;1.95;0.50;;;21.60;99.90;;;;;;5088236;28;20793;-80
2021/04/07 04:01:01;;;;;;;1.23;0.65;;;21.60;99.90;;;;;;5089644;28;20396;-80
2021/04/07 04:03:28;;;;;;;3.75;0.60;;;21.50;99.90;;;;;;5088110;28;20481;-79
2021/04/07 04:05:54;;;;;;;2.63;0.43;;;21.50;99.90;;;;;;5089238;28;20866;-80
2021/04/07 04:08:21;;;;;;;3.40;0.40;;;21.50;99.90;;;;;;5088118;28;20549;-80
2021/04/07 04:10:48;;;;;;;3.80;0.68;;;21.50;99.90;;;;;;5089373;28;20368;-81
2021/04/07 04:13:15;;;;;;;3.13;0.60;;;21.50;99.90;;;;;;5090038;28;20368;-81
2021/04/07 04:15:45;;;;;;;4.72;0.75;;;21.40;99.90;;;;;;5088948;28;20764;-81
2021/04/07 04:18:12;;;;;;;4.15;0.82;;;21.40;99.90;;;;;;5081745;28;20386;-81
2021/04/07 04:20:39;;;;;;;2.97;0.55;;;21.40;99.90;;;;;;5099444;28;20392;-79
2021/04/07 04:23:06;;;;;;;6.13;0.65;;;21.50;99.90;;;;;;5088266;28;20443;-80
2021/04/07 04:25:34;;;;;;;3.53;0.60;;;21.50;99.90;;;;;;5087580;28;20879;-80
2021/04/07 04:28:01;;;;;;;4.10;0.68;;;21.60;99.90;;;;;;5088526;28;20903;-80
2021/04/07 04:30:31;;;;;;;2.20;0.57;;;21.60;99.90;;;;;;5084221;28;20389;-81
2021/04/07 04:32:58;;;;;;;2.70;0.68;;;21.60;99.90;;;;;;5072076;28;20404;-80
2021/04/07 04:35:26;;;;;;;3.08;0.68;;;21.60;99.90;;;;;;5088600;28;20819;-81
2021/04/07 04:37:53;;;;;;;5.55;0.50;;;21.50;99.90;;;;;;5088761;28;20381;-81
2021/04/07 04:40:20;;;;;;;3.47;0.70;;;21.50;99.90;;;;;;5087292;28;20416;-81
2021/04/07 04:42:48;;;;;;;6.10;0.70;;;21.50;99.90;;;;;;5089243;28;20368;-81
2021/04/07 04:45:16;;;;;;;2.88;0.50;;;21.50;99.90;;;;;;5088245;28;20393;-81
2021/04/07 04:47:43;;;;;;;6.50;0.80;;;21.50;99.90;;;;;;5088474;28;20402;-82
2021/04/07 04:50:10;;;;;;;4.25;0.75;;;21.50;99.90;;;;;;5086844;28;20395;-80
2021/04/07 04:52:38;;;;;;;4.05;1.15;;;21.50;99.90;;;;;;5088750;28;20368;-81
2021/04/07 04:55:06;;;;;;;3.00;0.60;;;21.50;99.90;;;;;;5088711;28;20788;-80
2021/04/07 04:57:34;;;;;;;3.35;0.50;;;21.50;99.90;;;;;;5088787;28;20377;-80
2021/04/07 05:00:02;;;;;;;3.35;0.70;;;21.60;99.90;;;;;;5088832;28;20404;-81
2021/04/07 05:02:29;;;;;;;3.67;0.82;;;21.60;99.90;;;;;;5088616;28;20392;-81
2021/04/07 05:04:56;;;;;;;5.32;0.80;;;21.60;99.90;;;;;;5087165;28;20429;-81
2021/04/07 05:07:23;;;;;;;5.47;0.68;;;21.70;99.90;;;;;;5088722;28;20396;-81
2021/04/07 05:09:50;;;;;;;3.67;0.68;;;21.70;99.90;;;;;;5088571;28;20385;-81
2021/04/07 05:12:17;;;;;;;4.70;0.73;;;21.80;99.90;;;;;;5087267;28;20365;-81
2021/04/07 05:14:45;;;;;;;6.28;0.88;;;21.90;99.90;;;;;;5091228;28;20483;-80
2021/04/07 05:17:12;;;;;;;2.45;0.60;;;21.90;99.90;;;;;;5107547;28;20366;-81
2021/04/07 05:19:39;;;;;;;2.70;0.68;;;22.00;99.90;;;;;;5107779;28;20423;-81
2021/04/07 05:22:06;;;;;;;5.03;0.70;;;22.10;99.90;;;;;;5087326;28;20420;-81
2021/04/07 05:24:33;;;;;;;4.95;0.80;;;22.10;99.90;;;;;;5088255;28;20730;-80
2021/04/07 05:27:00;;;;;;;2.40;0.55;;;22.00;99.90;;;;;;5088189;28;20399;-81
2021/04/07 05:29:27;;;;;;;3.42;0.77;;;22.00;99.90;;;;;;5088234;28;20395;-81
2021/04/07 05:31:54;;;;;;;3.75;0.80;;;22.00;99.90;;;;;;5085179;28;20411;-81
2021/04/07 05:34:21;;;;;;;5.30;0.82;;;21.90;99.90;;;;;;5089372;28;20518;-81
2021/04/07 05:36:48;;;;;;;4.00;0.80;;;22.00;99.90;;;;;;5092030;28;20369;-80
2021/04/07 05:39:14;;;;;;;3.75;0.70;;;21.90;99.90;;;;;;5090647;28;20739;-81
2021/04/07 05:41:42;;;;;;;4.30;0.75;;;21.90;99.90;;;;;;5073267;28;20749;-81
2021/04/07 05:44:09;;;;;;;5.80;1.03;;;21.80;99.90;;;;;;5070539;28;20415;-81
2021/04/07 05:46:36;;;;;;;4.63;0.70;;;21.70;99.90;;;;;;5089264;28;20384;-81
2021/04/07 05:49:03;;;;;;;4.17;0.80;;;21.60;99.90;;;;;;5091725;28;20415;-81
2021/04/07 05:51:30;;;;;;;5.10;0.90;;;21.60;99.90;;;;;;5090086;28;20372;-81
2021/04/07 05:53:57;;;;;;;3.55;0.80;;;21.50;99.90;;;;;;5091858;28;20373;-81
2021/04/07 05:56:25;;;;;;;5.25;1.10;;;21.50;99.90;;;;;;5091859;28;20867;-81
2021/04/07 05:58:52;;;;;;;3.15;0.63;;;21.50;99.90;;;;;;5090382;28;20803;-81
2021/04/07 06:01:19;;;;;;;4.18;0.75;;;21.40;99.90;;;;;;5090530;28;20431;-81
2021/04/07 06:03:46;;;;;;;5.10;0.67;;;21.40;99.90;;;;;;5090593;28;20477;-81
2021/04/07 06:06:13;;;;;;;4.73;0.70;;;21.40;99.90;;;;;;5091814;28;20920;-81
2021/04/07 06:08:40;;;;;;;4.00;0.80;;;21.30;99.90;;;;;;5091781;28;20521;-80
2021/04/07 06:11:07;;;;;;;4.57;0.80;;;21.20;99.90;;;;;;5100957;28;20373;-81
2021/04/07 06:13:34;;;;;;;4.32;0.80;;;21.20;99.90;;;;;;5111792;28;20436;-81
2021/04/07 06:16:01;;;;;;;4.72;0.80;;;21.10;99.90;;;;;;5097310;28;20410;-81
2021/04/07 06:18:28;;;;;;;6.65;1.00;;;21.10;99.90;;;;;;5090706;28;20377;-81
2021/04/07 06:20:55;;;;;;;3.05;0.50;;;21.00;99.90;;;;;;5070689;28;20881;-81
2021/04/07 06:23:22;;;;;;;2.53;0.43;;;21.00;99.90;;;;;;5069519;28;20378;-81
2021/04/07 06:25:49;;;;;;;4.00;0.68;;;21.00;99.90;;;;;;5071207;28;20942;-81
2021/04/07 06:28:17;;;;;;;4.38;0.80;;;21.00;99.90;;;;;;5084550;28;20408;-81
2021/04/07 06:30:45;;;;;;;4.30;0.70;;;21.00;99.90;;;;;;5088321;28;20372;-79
2021/04/07 06:33:20;;;;;;;3.70;0.70;;;20.90;99.90;;;;;;5070986;28;20481;-80
2021/04/07 06:35:59;;;;;;;6.27;0.83;;;20.80;99.90;;;;;;5088396;28;20459;-81
2021/04/07 06:38:27;;;;;;;4.18;0.60;;;20.80;99.90;;;;;;5090857;28;20380;-80
2021/04/07 06:40:56;;;;;;;3.93;0.80;;;20.60;99.90;;;;;;5091068;28;20364;-81
2021/04/07 06:43:24;;;;;;;2.53;0.50;;;20.50;99.90;;;;;;5091496;28;20541;-82
2021/04/07 06:45:52;;;;;;;2.97;0.60;;;20.50;99.90;;;;;;5090753;28;20371;-82
2021/04/07 06:48:20;;;;;;;3.42;0.70;;;20.40;99.90;;;;;;5089406;28;20396;-81
2021/04/07 06:50:50;;;;;;;2.97;0.60;;;20.20;99.90;;;;;;5090631;28;20458;-81
2021/04/07 06:53:19;;;;;;;1.60;0.50;;;20.20;99.90;;;;;;5090926;28;20380;-81
2021/04/07 06:55:46;;;;;;;3.45;0.65;;;20.00;99.90;;;;;;5091039;28;20373;-81
2021/04/07 06:58:13;;;;;;;3.08;0.43;;;19.90;99.90;;;;;;5089356;28;20384;-81
2021/04/07 07:00:41;;;;;;;3.53;0.45;;;19.80;99.90;;;;;;5089582;28;20965;-81
2021/04/07 07:03:17;;;;;;;1.95;0.50;;;19.70;99.90;;;;;;5090889;28;20713;-81
2021/04/07 07:05:54;;;;;;;2.15;0.40;;;19.60;99.90;;;;;;5089361;28;20445;-82
2021/04/07 07:08:21;;;;;;;1.73;0.40;;;19.60;99.90;;;;;;5089000;28;20990;-82
2021/04/07 07:10:53;;;;;;;3.15;0.50;;;19.60;99.90;;;;;;5089281;28;20456;-81
2021/04/07 07:13:23;;;;;;;1.75;0.32;;;19.50;99.90;;;;;;5085485;28;20398;-81
2021/04/07 07:15:50;;;;;;;2.72;0.43;;;19.50;99.90;;;;;;5088976;28;20403;-81
2021/04/07 07:18:28;;;;;;;0.77;0.30;;;19.40;99.90;;;;;;5088978;28;20372;-80
2021/04/07 07:20:56;;;;;;;1.35;0.38;;;19.30;99.90;;;;;;5084849;28;20392;-80
2021/04/07 07:23:24;;;;;;;1.80;0.40;;;19.20;99.90;;;;;;5072347;28;20469;-81
2021/04/07 07:25:55;;;;;;;2.13;0.28;;;19.20;99.90;;;;;;5068332;28;20417;-81
2021/04/07 07:28:23;;;;;;;1.23;0.40;;;19.10;99.90;;;;;;5073749;28;20405;-80
2021/04/07 07:30:50;;;;;;;1.73;0.35;;;19.10;99.90;;;;;;5075124;28;20465;-81
2021/04/07 07:33:19;;;;;;;1.60;0.40;;;19.10;99.90;;;;;;5071286;28;20901;-81
2021/04/07 07:36:06;;;;;;;2.95;0.60;;;19.00;99.90;;;;;;5081726;28;20476;-81
2021/04/07 07:38:33;;;;;;;1.90;0.38;;;19.10;99.90;;;;;;5069949;28;20502;-81
2021/04/07 07:41:04;;;;;;;1.70;0.45;;;19.00;99.90;;;;;;5068673;28;20980;-81
2021/04/07 07:43:31;;;;;;;1.98;0.47;;;19.00;99.90;;;;;;5084389;28;20419;-81
2021/04/07 07:46:06;;;;;;;2.42;0.47;;;19.00;99.90;;;;;;5083445;28;20392;-80
2021/04/07 07:48:33;;;;;;;3.03;0.60;;;19.00;99.90;;;;;;5083747;28;20408;-82
2021/04/07 07:51:10;;;;;;;2.63;0.53;;;18.90;99.90;;;;;;5088686;28;21238;-81
2021/04/07 07:53:37;;;;;;;3.90;0.80;;;18.90;99.90;;;;;;5084050;28;20396;-82
2021/04/07 07:56:05;;;;;;;4.05;0.70;;;18.80;99.90;;;;;;5077311;28;20882;-81
2021/04/07 07:58:32;;;;;;;4.60;0.70;;;18.90;99.90;;;;;;5086070;28;20433;-80
2021/04/07 08:01:14;;;;;;;3.10;0.90;;;18.90;99.90;;;;;;5074935;28;20519;-79
2021/04/07 08:03:45;;;;;;;3.00;0.50;;;18.90;99.90;;;;;;5085915;28;20403;-82
2021/04/07 08:06:13;;;;;;;5.43;1.02;;;19.00;99.90;;;;;;5087052;28;20755;-81
2021/04/07 08:08:41;;;;;;;7.30;1.30;;;18.90;99.90;;;;;;5088139;28;20412;-77
2021/04/07 08:11:08;;;;;;;7.78;1.35;;;18.90;99.90;;;;;;5087013;28;20402;-79
2021/04/07 08:13:44;;;;;;;5.32;0.93;;;18.80;99.90;;;;;;5076922;28;20893;-79
2021/04/07 08:16:15;;;;;;;8.40;1.30;;;18.80;99.90;;;;;;5086024;28;20382;-79
2021/04/07 08:18:45;;;;;;;8.47;1.10;;;18.80;99.90;;;;;;5088964;28;20380;-79
2021/04/07 08:21:14;;;;;;;10.07;1.13;;;18.90;99.90;;;;;;5073904;28;20764;-79
2021/04/07 08:23:43;;;;;;;6.93;1.05;;;18.90;99.90;;;;;;5086473;28;20499;-79
2021/04/07 08:26:11;;;;;;;3.47;0.80;;;18.90;99.90;;;;;;5079665;28;20479;-80
2021/04/07 08:28:42;;;;;;;2.83;0.60;;;18.80;99.90;;;;;;5085618;28;20724;-80
2021/04/07 08:31:13;;;;;;;5.70;0.85;;;18.50;99.90;;;;;;5087713;28;20392;-83
2021/04/07 08:33:45;;;;;;;5.90;1.30;;;18.10;99.90;;;;;;5081832;28;20401;-84
2021/04/07 08:36:14;;;;;;;9.00;2.00;;;17.80;99.90;;;;;;5067720;28;20374;-81
2021/04/07 08:38:41;;;;;;;11.73;1.55;;;17.60;99.90;;;;;;5083608;28;20380;-78
2021/04/07 08:41:17;;;;;;;7.57;1.80;;;17.50;99.90;;;;;;5085266;28;20479;-79
2021/04/07 08:43:50;;;;;;;8.55;2.08;;;17.40;99.90;;;;;;5088732;28;20376;-81
2021/04/07 08:46:26;;;;;;;9.38;1.65;;;17.40;99.90;;;;;;5084337;28;20396;-80
2021/04/07 08:48:54;;;;;;;7.03;1.35;;;17.40;99.90;;;;;;5077119;28;20406;-77
2021/04/07 08:51:24;;;;;;;5.00;0.95;;;17.40;99.90;;;;;;5068746;28;20448;-79
2021/04/07 08:53:56;;;;;;;12.80;2.72;;;17.60;99.90;;;;;;5068106;28;20390;-79
2021/04/07 08:56:27;;;;;;;8.02;1.05;;;17.60;99.90;;;;;;5077593;28;20384;-82
2021/04/07 08:58:58;;;;;;;8.32;2.25;;;17.50;99.90;;;;;;5086655;28;20391;-83
2021/04/07 09:01:33;;;;;;;7.00;1.10;;;17.60;99.90;;;;;;5074297;28;20390;-84
2021/04/07 09:04:21;;;;;;;4.50;1.20;;;17.60;99.90;;;;;;5082314;28;20392;-81
2021/04/07 09:07:01;;;;;;;3.88;0.90;;;17.70;99.90;;;;;;5068401;28;20382;-84
2021/04/07 09:09:35;;;;;;;5.63;1.30;;;17.80;99.90;;;;;;5082768;28;21012;-81
2021/04/07 09:12:03;;;;;;;7.70;1.40;;;17.90;99.90;;;;;;5092648;28;20380;-83
2021/04/07 09:14:30;;;;;;;6.43;1.30;;;18.00;99.90;;;;;;5076638;28;20399;-82
2021/04/07 09:17:05;;;;;;;3.35;1.08;;;18.10;99.90;;;;;;5080126;28;20396;-82
2021/04/07 09:19:34;;;;;;;2.95;1.23;;;18.10;99.90;;;;;;5077194;28;20400;-81
2021/04/07 09:22:08;;;;;;;4.80;1.20;;;18.20;99.90;;;;;;5076686;28;20758;-80
2021/04/07 09:24:39;;;;;;;6.63;1.20;;;18.30;99.90;;;;;;5086652;28;20392;-80
2021/04/07 09:27:08;;;;;;;10.35;1.45;;;18.30;99.90;;;;;;5071549;28;20427;-82
2021/04/07 09:29:40;;;;;;;5.85;1.17;;;18.30;99.90;;;;;;5079357;28;20406;-82
2021/04/07 09:32:16;;;;;;;9.53;1.30;;;18.40;99.90;;;;;;5075939;28;20459;-82
2021/04/07 09:34:44;;;;;;;7.90;1.43;;;18.40;99.90;;;;;;5077617;28;20470;-81
2021/04/07 09:37:12;;;;;;;6.43;1.52;;;18.40;99.90;;;;;;5083192;28;20486;-82
2021/04/07 09:39:40;;;;;;;11.23;1.80;;;18.40;99.90;;;;;;5083319;28;20455;-82
2021/04/07 09:42:09;;;;;;;8.40;1.90;;;18.40;99.90;;;;;;5072471;28;20437;-83
2021/04/07 09:44:36;;;;;;;8.70;1.70;;;18.40;99.90;;;;;;5072975;28;21079;-82
2021/04/07 09:47:04;;;;;;;7.88;1.77;;;18.40;99.90;;;;;;5088458;28;20368;-81
2021/04/07 09:49:35;;;;;;;11.15;2.10;;;18.40;99.90;;;;;;5087565;28;20404;-81
2021/04/07 09:52:02;;;;;;;10.63;1.90;;;18.40;99.90;;;;;;5079397;28;20461;-81
2021/04/07 09:54:38;;;;;;;10.48;1.90;;;18.40;99.90;;;;;;5071521;28;20401;-81
2021/04/07 09:57:06;;;;;;;13.20;1.90;;;18.40;99.90;;;;;;5083736;28;20808;-80
2021/04/07 09:59:37;;;;;;;11.30;1.73;;;18.40;99.90;;;;;;5067293;28;20388;-80
2021/04/07 10:02:28;;;;;;;10.83;1.80;;;18.40;99.90;;;;;;5081056;28;20376;-80
2021/04/07 10:04:57;;;;;;;10.93;2.10;;;18.30;99.90;;;;;;5071356;28;20437;-80
2021/04/07 10:07:33;;;;;;;9.10;2.23;;;18.30;99.90;;;;;;5077235;28;20793;-80
2021/04/07 10:10:01;;;;;;;14.20;2.53;;;18.20;99.90;;;;;;5080677;28;20394;-80
2021/04/07 10:12:29;;;;;;;10.27;2.20;;;18.20;99.90;;;;;;5078619;28;20394;-80
2021/04/07 10:15:01;;;;;;;6.82;2.35;;;18.20;99.90;;;;;;5074315;28;20771;-80
2021/04/07 10:17:30;;;;;;;8.35;2.17;;;18.20;99.90;;;;;;5088066;28;20396;-81
2021/04/07 10:20:07;;;;;;;7.45;1.98;;;18.30;99.90;;;;;;5087691;28;20385;-81
2021/04/07 10:22:36;;;;;;;7.88;1.80;;;18.30;99.90;;;;;;5075050;28;20757;-81
2021/04/07 10:25:14;;;;;;;10.02;1.90;;;18.30;99.90;;;;;;5068504;28;20435;-80
2021/04/07 10:27:43;;;;;;;8.93;2.15;;;18.40;99.90;;;;;;5069031;28;20412;-80
2021/04/07 10:30:13;;;;;;;7.47;2.20;;;18.40;99.90;;;;;;5068461;28;20465;-80
2021/04/07 10:32:42;;;;;;;6.22;1.60;;;18.30;99.90;;;;;;5068303;28;20873;-80
2021/04/07 10:35:11;;;;;;;6.18;3.20;;;18.30;99.90;;;;;;5067647;28;20393;-80
2021/04/07 10:37:38;;;;;;;7.65;2.03;;;18.40;99.90;;;;;;5066447;28;20374;-81
2021/04/07 10:40:21;;;;;;;6.85;1.63;;;18.40;99.90;;;;;;5068565;28;20382;-82
2021/04/07 10:42:49;;;;;;;4.93;1.30;;;18.50;99.90;;;;;;5075413;28;20795;-81
2021/04/07 10:45:20;;;;;;;5.93;1.50;;;18.50;99.90;;;;;;5068397;28;20422;-80
2021/04/07 10:47:49;;;;;;;3.45;1.35;;;18.50;99.90;;;;;;5071367;28;20400;-81
2021/04/07 10:50:16;;;;;;;8.85;1.85;;;18.50;99.90;;;;;;5086736;28;20383;-80
2021/04/07 10:52:46;;;;;;;4.75;1.90;;;18.50;99.90;;;;;;5087999;28;20393;-81
2021/04/07 10:55:20;;;;;;;4.75;1.80;;;18.60;99.90;;;;;;5081082;28;20388;-81
2021/04/07 10:57:48;;;;;;;3.92;1.42;;;18.60;99.90;;;;;;5085849;28;20385;-82
2021/04/07 11:00:31;;;;;;;2.97;1.35;;;18.60;99.90;;;;;;5085018;28;20384;-81
2021/04/07 11:02:59;;;;;;;6.57;1.80;;;18.60;99.90;;;;;;5080241;28;20794;-81
2021/04/07 11:05:47;;;;;;;4.78;1.60;;;18.60;99.90;;;;;;5072649;28;20390;-82
2021/04/07 11:08:16;;;;;;;6.65;1.92;;;18.60;99.90;;;;;;5083529;28;20402;-82
2021/04/07 11:10:52;;;;;;;6.07;1.60;;;18.60;99.90;;;;;;5085638;28;20396;-81
2021/04/07 11:13:21;;;;;;;7.18;1.63;;;18.60;99.90;;;;;;5080639;28;20390;-81
2021/04/07 11:15:48;;;;;;;6.05;1.77;;;18.60;99.90;;;;;;5071759;28;20881;-82
2021/04/07 11:18:15;;;;;;;4.88;1.65;;;18.60;99.90;;;;;;5070791;28;20727;-82
2021/04/07 11:20:44;;;;;;;7.75;1.77;;;18.60;99.90;;;;;;5074415;28;20983;-80
2021/04/07 11:23:12;;;;;;;5.13;1.53;;;18.60;99.90;;;;;;5077138;28;20468;-80
2021/04/07 11:25:40;;;;;;;6.65;1.73;;;18.60;99.90;;;;;;5082736;28;21243;-81
2021/04/07 11:28:19;;;;;;;5.05;1.60;;;18.60;99.90;;;;;;5087221;28;20400;-79
2021/04/07 11:31:05;;;;;;;8.13;2.47;;;18.70;99.90;;;;;;5084703;28;20380;-81
2021/04/07 11:33:48;;;;;;;4.20;1.67;;;18.70;99.90;;;;;;5070752;28;20405;-81
2021/04/07 11:46:27;;;;;;;4.93;2.50;;;18.50;99.90;;;;;;5069573;28;20402;-81
2021/04/07 11:48:54;;;;;;;7.03;2.20;;;18.50;99.90;;;;;;5067867;28;20491;-81
2021/04/07 11:51:21;;;;;;;6.90;3.65;;;18.60;99.90;;;;;;5069952;28;20395;-80
2021/04/07 11:53:49;;;;;;;10.88;4.10;;;18.60;99.90;;;;;;5077771;28;20399;-81
2021/04/07 11:56:17;;;;;;;7.25;2.80;;;18.60;99.90;;;;;;5072108;28;20385;-80
2021/04/07 11:58:45;;;;;;;6.68;2.40;;;18.60;99.90;;;;;;5085599;28;20875;-80
2021/04/07 12:01:13;;;;;;;7.20;2.20;;;18.60;99.90;;;;;;5089745;28;20731;-80
2021/04/07 12:03:42;;;;;;;11.15;2.40;;;18.60;99.90;;;;;;5088296;28;20372;-81
2021/04/07 12:06:09;;;;;;;4.57;2.33;;;18.60;99.90;;;;;;5091029;28;20388;-81
2021/04/07 12:08:37;;;;;;;9.48;2.25;;;18.50;99.90;;;;;;5106504;28;20399;-81
2021/04/07 12:11:04;;;;;;;8.52;2.13;;;18.50;99.90;;;;;;5080936;28;20480;-81
2021/04/07 12:13:31;;;;;;;15.38;2.80;;;18.50;99.90;;;;;;5096641;28;20934;-81
2021/04/07 12:15:58;;;;;;;6.63;2.30;;;18.50;99.90;;;;;;5088698;28;20419;-81
2021/04/07 12:18:25;;;;;;;8.75;2.50;;;18.40;99.90;;;;;;5077794;28;20392;-81
2021/04/07 12:20:53;;;;;;;4.80;2.42;;;18.40;99.90;;;;;;5095524;28;20371;-81
2021/04/07 12:23:20;;;;;;;9.77;2.70;;;18.40;99.90;;;;;;5106910;28;20379;-81
2021/04/07 12:25:47;;;;;;;7.00;2.70;;;18.40;99.90;;;;;;5093519;28;20384;-81
2021/04/07 12:28:14;;;;;;;3.95;2.00;;;18.30;99.90;;;;;;5069970;28;20904;-81
2021/04/07 12:30:53;;;;;;;5.97;2.40;;;18.20;99.90;;;;;;5068898;28;20452;-80
2021/04/07 12:33:25;;;;;;;5.57;2.30;;;18.20;99.90;;;;;;5081117;28;20885;-80
2021/04/07 12:35:53;;;;;;;5.47;2.50;;;18.20;99.90;;;;;;5077506;28;20409;-81
2021/04/07 12:38:20;;;;;;;6.85;2.25;;;18.10;99.90;;;;;;5079551;28;20391;-81
2021/04/07 12:40:49;;;;;;;8.25;2.45;;;18.20;99.90;;;;;;5077331;28;20392;-80
2021/04/07 12:43:16;;;;;;;5.47;2.60;;;18.20;99.90;;;;;;5083113;28;20558;-81
2021/04/07 12:45:43;;;;;;;4.65;1.90;;;18.10;99.90;;;;;;5078746;28;20384;-80
2021/04/07 12:48:11;;;;;;;8.40;2.20;;;18.10;99.90;;;;;;5078093;28;20406;-81
2021/04/07 12:50:38;;;;;;;7.03;2.00;;;18.10;99.90;;;;;;5080356;28;20391;-81
2021/04/07 12:53:06;;;;;;;6.13;1.75;;;18.00;99.90;;;;;;5076024;28;20396;-81
2021/04/07 12:55:34;;;;;;;5.40;2.00;;;18.10;99.90;;;;;;5075066;28;20887;-81
2021/04/07 12:58:01;;;;;;;4.35;1.60;;;18.00;99.90;;;;;;5076636;28;20551;-80
2021/04/07 13:00:29;;;;;;;7.03;2.30;;;18.00;99.90;;;;;;5075057;28;20481;-80
2021/04/07 13:02:56;;;;;;;7.05;2.33;;;18.10;99.90;;;;;;5077778;28;20446;-80
2021/04/07 13:05:24;;;;;;;6.22;1.85;;;18.00;99.90;;;;;;5080595;28;21147;-80
2021/04/07 13:07:51;;;;;;;7.70;2.35;;;18.00;99.90;;;;;;5077669;28;20449;-80